Time;durP1;ratioP1;P1;durP2;ratioP2;P2;SDS_P1;SDS_P2;PMS_P1;PMS_P2;Temp;Humidity;BMP_temperature;BMP_pressure;BME280_temperature;BME280_humidity;BME280_pressure;Samples;Min_cycle;Max_cycle;Signal;HPM_P1;HPM_P2
2023/07/30 00:01:20;;;;;;;10.93;3.70;;;16.40;99.90;;;;;;5082982;28;20251;-80
2023/07/30 00:03:45;;;;;;;5.33;3.60;;;16.40;99.90;;;;;;5085243;28;20615;-80
2023/07/30 00:06:11;;;;;;;8.70;4.07;;;16.40;99.90;;;;;;5085870;28;20168;-81
2023/07/30 00:08:36;;;;;;;7.47;3.70;;;16.40;99.90;;;;;;5084653;28;20258;-81
2023/07/30 00:11:02;;;;;;;8.87;4.43;;;16.30;99.90;;;;;;5084319;28;20177;-81
2023/07/30 00:13:28;;;;;;;12.07;4.50;;;16.30;99.90;;;;;;5082300;28;20199;-81
2023/07/30 00:15:53;;;;;;;6.77;3.93;;;16.30;99.90;;;;;;5080679;28;20180;-79
2023/07/30 00:18:19;;;;;;;11.80;4.47;;;16.30;99.90;;;;;;5081323;28;20214;-81
2023/07/30 00:20:44;;;;;;;8.63;4.10;;;16.30;99.90;;;;;;5083273;28;20175;-80
2023/07/30 00:23:10;;;;;;;9.17;4.70;;;16.30;99.90;;;;;;5064648;28;20689;-80
2023/07/30 00:25:36;;;;;;;8.20;4.53;;;16.30;99.90;;;;;;5082997;28;20617;-81
2023/07/30 00:28:01;;;;;;;6.20;4.03;;;16.30;99.90;;;;;;5082787;28;20177;-81
2023/07/30 00:30:27;;;;;;;6.13;4.10;;;16.30;99.90;;;;;;5080948;28;20169;-81
2023/07/30 00:32:53;;;;;;;12.90;4.07;;;16.30;99.90;;;;;;5080699;28;20172;-81
2023/07/30 00:35:18;;;;;;;9.60;3.80;;;16.30;99.90;;;;;;5079452;28;20703;-81
2023/07/30 00:37:45;;;;;;;8.90;4.23;;;16.20;99.90;;;;;;5078767;28;20197;-81
2023/07/30 00:40:11;;;;;;;9.37;4.30;;;16.20;99.90;;;;;;5078577;28;20517;-79
2023/07/30 00:42:37;;;;;;;9.30;3.93;;;16.20;99.90;;;;;;5077562;28;20228;-80
2023/07/30 00:45:03;;;;;;;12.30;4.60;;;16.20;99.90;;;;;;5077479;28;20221;-80
2023/07/30 00:47:29;;;;;;;10.97;4.00;;;16.20;99.90;;;;;;5077362;28;20306;-80
2023/07/30 00:49:54;;;;;;;11.57;4.27;;;16.20;99.90;;;;;;5078546;28;20197;-80
2023/07/30 00:52:21;;;;;;;14.13;4.17;;;16.20;99.90;;;;;;5078432;28;20169;-80
2023/07/30 00:54:48;;;;;;;12.00;4.03;;;16.20;99.90;;;;;;5077861;28;20210;-81
2023/07/30 00:57:16;;;;;;;14.60;3.70;;;16.30;99.90;;;;;;5076727;28;20194;-80
2023/07/30 00:59:42;;;;;;;10.60;3.63;;;16.30;99.90;;;;;;5077946;28;20169;-81
2023/07/30 01:02:08;;;;;;;9.07;3.80;;;16.30;99.90;;;;;;5079274;28;20197;-80
2023/07/30 01:04:34;;;;;;;7.80;3.93;;;16.30;99.90;;;;;;5079468;28;20499;-81
2023/07/30 01:06:59;;;;;;;12.90;3.97;;;16.30;99.90;;;;;;5080840;28;20509;-81
2023/07/30 01:09:25;;;;;;;12.80;3.77;;;16.50;99.90;;;;;;5081072;28;20177;-81
2023/07/30 01:11:53;;;;;;;9.27;3.83;;;16.50;99.90;;;;;;5080080;28;20199;-81
2023/07/30 01:14:21;;;;;;;12.07;3.97;;;16.50;99.90;;;;;;5062066;28;20640;-81
2023/07/30 01:16:46;;;;;;;11.57;4.20;;;16.60;99.90;;;;;;5080956;28;20259;-81
2023/07/30 01:19:12;;;;;;;7.47;3.20;;;16.60;99.90;;;;;;5081590;28;20285;-81
2023/07/30 01:21:38;;;;;;;9.67;3.87;;;16.50;99.90;;;;;;5080493;28;20212;-81
2023/07/30 01:24:04;;;;;;;11.50;3.80;;;16.60;99.90;;;;;;5082070;28;20705;-81
2023/07/30 01:26:58;;;;;;;10.80;3.93;;;16.60;99.90;;;;;;5081460;28;20674;-81
2023/07/30 01:29:42;;;;;;;11.17;3.60;;;16.60;99.90;;;;;;5079884;28;20192;-81
2023/07/30 01:32:11;;;;;;;9.23;3.73;;;16.60;99.90;;;;;;5065727;28;20244;-81
2023/07/30 01:34:40;;;;;;;8.80;3.90;;;16.60;99.90;;;;;;5086431;28;20236;-81
2023/07/30 01:37:10;;;;;;;9.73;3.47;;;16.60;99.90;;;;;;5085629;28;20194;-81
2023/07/30 01:39:38;;;;;;;9.37;3.70;;;16.60;99.90;;;;;;5085094;28;20180;-81
2023/07/30 01:42:04;;;;;;;9.53;3.70;;;16.60;99.90;;;;;;5082828;28;20745;-82
2023/07/30 01:44:30;;;;;;;13.83;4.23;;;16.70;99.90;;;;;;5063335;28;20211;-80
2023/07/30 01:46:55;;;;;;;13.83;3.73;;;16.70;99.90;;;;;;5080707;28;20575;-81
2023/07/30 01:49:21;;;;;;;12.10;3.97;;;16.80;99.90;;;;;;5079406;28;20251;-80
2023/07/30 01:51:47;;;;;;;16.53;4.10;;;16.80;99.90;;;;;;5061706;28;20173;-81
2023/07/30 01:54:12;;;;;;;11.80;3.90;;;16.80;99.90;;;;;;5082221;28;20173;-81
2023/07/30 01:56:38;;;;;;;9.10;3.73;;;16.90;99.90;;;;;;5067316;28;20173;-81
2023/07/30 01:59:04;;;;;;;10.20;3.83;;;16.90;99.90;;;;;;5084772;28;20169;-81
2023/07/30 02:01:29;;;;;;;14.67;3.97;;;16.90;99.90;;;;;;5067375;28;20204;-81
2023/07/30 02:03:55;;;;;;;12.20;3.67;;;16.90;99.90;;;;;;5085005;28;20654;-81
2023/07/30 02:06:21;;;;;;;8.07;3.20;;;17.00;99.90;;;;;;5086357;28;20179;-81
2023/07/30 02:08:46;;;;;;;8.90;3.53;;;16.90;99.90;;;;;;5085700;28;20176;-81
2023/07/30 02:11:12;;;;;;;11.07;3.83;;;16.90;99.90;;;;;;5084531;28;20165;-81
2023/07/30 02:13:38;;;;;;;11.23;3.10;;;16.90;99.90;;;;;;5084961;28;20235;-81
2023/07/30 02:16:03;;;;;;;10.10;3.20;;;16.80;99.90;;;;;;5085271;28;20169;-81
2023/07/30 02:18:29;;;;;;;12.13;3.47;;;16.90;99.90;;;;;;5083115;28;20203;-81
2023/07/30 02:20:54;;;;;;;8.40;3.20;;;16.90;99.90;;;;;;5084085;28;20172;-81
2023/07/30 02:23:20;;;;;;;11.73;3.60;;;16.90;99.90;;;;;;5082704;28;20198;-81
2023/07/30 02:25:46;;;;;;;10.50;3.80;;;16.90;99.90;;;;;;5082614;28;20173;-81
2023/07/30 02:28:12;;;;;;;14.40;3.50;;;16.90;99.90;;;;;;5080305;28;20168;-80
2023/07/30 02:30:37;;;;;;;9.67;3.77;;;16.80;99.90;;;;;;5080703;28;20255;-81
2023/07/30 02:33:03;;;;;;;16.60;3.77;;;16.70;99.90;;;;;;5077957;28;20164;-82
2023/07/30 02:35:29;;;;;;;10.73;3.30;;;16.70;99.90;;;;;;5079882;28;20173;-81
2023/07/30 02:37:54;;;;;;;11.10;3.67;;;16.70;99.90;;;;;;5080149;28;20204;-81
2023/07/30 02:40:20;;;;;;;16.47;3.70;;;16.60;99.90;;;;;;5060155;28;20168;-80
2023/07/30 02:42:45;;;;;;;13.47;3.77;;;16.60;99.90;;;;;;5043206;28;20225;-81
2023/07/30 02:45:11;;;;;;;17.33;3.67;;;16.60;99.90;;;;;;5037126;28;20711;-79
2023/07/30 02:47:36;;;;;;;11.40;3.40;;;16.60;99.90;;;;;;5036335;28;20174;-80
2023/07/30 02:50:08;;;;;;;15.47;3.73;;;16.60;99.90;;;;;;5036162;28;20249;-81
2023/07/30 02:52:34;;;;;;;13.10;3.33;;;16.60;99.90;;;;;;5035594;28;20174;-81
2023/07/30 02:54:59;;;;;;;10.87;3.40;;;16.60;99.90;;;;;;5035768;28;20244;-82
2023/07/30 02:57:25;;;;;;;10.60;3.40;;;16.50;99.90;;;;;;5034724;28;20194;-81
2023/07/30 02:59:50;;;;;;;11.77;3.27;;;16.40;99.90;;;;;;5036332;28;20166;-80
2023/07/30 03:02:16;;;;;;;13.90;3.70;;;16.40;99.90;;;;;;5035976;28;20240;-81
2023/07/30 03:04:42;;;;;;;12.70;3.30;;;16.40;99.90;;;;;;5036411;28;20185;-80
2023/07/30 03:07:08;;;;;;;11.40;3.80;;;16.40;99.90;;;;;;5036029;28;20174;-80
2023/07/30 03:09:34;;;;;;;12.00;3.53;;;16.40;99.90;;;;;;5035735;28;20205;-81
2023/07/30 03:12:00;;;;;;;11.43;3.43;;;16.40;99.90;;;;;;5033947;28;20216;-79
2023/07/30 03:14:25;;;;;;;15.07;3.70;;;16.50;99.90;;;;;;5034798;28;20177;-80
2023/07/30 03:16:51;;;;;;;10.33;3.23;;;16.50;99.90;;;;;;5034633;28;20661;-81
2023/07/30 03:19:16;;;;;;;11.83;3.50;;;16.50;99.90;;;;;;5034640;28;20257;-80
2023/07/30 03:21:42;;;;;;;14.47;3.10;;;16.50;99.90;;;;;;5035017;28;20684;-80
2023/07/30 03:24:08;;;;;;;14.03;4.07;;;16.40;99.90;;;;;;5033356;28;20181;-80
2023/07/30 03:26:34;;;;;;;17.47;3.87;;;16.40;99.90;;;;;;5036048;28;20679;-81
2023/07/30 03:28:59;;;;;;;10.90;3.30;;;16.40;99.90;;;;;;5039569;28;20170;-80
2023/07/30 03:31:25;;;;;;;10.47;3.40;;;16.50;99.90;;;;;;5038567;28;20206;-80
2023/07/30 03:33:51;;;;;;;13.10;3.83;;;16.40;99.90;;;;;;5040078;28;20180;-82
2023/07/30 03:36:16;;;;;;;14.67;3.53;;;16.50;99.90;;;;;;5041050;28;20174;-79
2023/07/30 03:38:43;;;;;;;10.63;3.20;;;16.60;99.90;;;;;;5040264;28;20272;-82
2023/07/30 03:41:09;;;;;;;11.40;3.10;;;16.60;99.90;;;;;;5040839;28;20217;-80
2023/07/30 03:43:35;;;;;;;11.40;3.03;;;16.60;99.90;;;;;;5080313;28;20228;-81
2023/07/30 03:46:01;;;;;;;9.43;3.10;;;16.60;99.90;;;;;;5079539;28;20168;-80
2023/07/30 03:48:27;;;;;;;11.37;3.40;;;16.60;99.90;;;;;;5078679;28;20184;-81
2023/07/30 03:50:53;;;;;;;8.93;3.30;;;16.60;99.90;;;;;;5079575;28;20563;-80
2023/07/30 03:53:19;;;;;;;18.07;3.40;;;16.60;99.90;;;;;;5078728;28;20234;-80
2023/07/30 03:55:45;;;;;;;13.77;3.57;;;16.60;99.90;;;;;;5081213;28;20176;-80
2023/07/30 03:58:10;;;;;;;12.20;3.27;;;16.60;99.90;;;;;;5080806;28;20572;-80
2023/07/30 04:00:36;;;;;;;13.10;3.50;;;16.60;99.90;;;;;;5080528;28;20652;-79
2023/07/30 04:03:02;;;;;;;16.60;3.33;;;16.50;99.90;;;;;;5078183;28;20214;-80
2023/07/30 04:05:27;;;;;;;14.80;3.50;;;16.50;99.90;;;;;;5080107;28;20184;-80
2023/07/30 04:07:53;;;;;;;12.57;3.30;;;16.50;99.90;;;;;;5061462;28;20187;-80
2023/07/30 04:10:19;;;;;;;10.27;3.07;;;16.50;99.90;;;;;;5078430;28;20177;-79
2023/07/30 04:12:45;;;;;;;9.13;3.30;;;16.50;99.90;;;;;;5077434;28;20176;-80
2023/07/30 04:15:10;;;;;;;13.63;3.70;;;16.30;99.90;;;;;;5076774;28;20263;-80
2023/07/30 04:17:37;;;;;;;14.10;3.40;;;16.30;99.90;;;;;;5076523;28;20498;-81
2023/07/30 04:20:04;;;;;;;10.77;3.20;;;16.40;99.90;;;;;;5077180;28;20181;-80
2023/07/30 04:22:30;;;;;;;12.63;3.50;;;16.40;99.90;;;;;;5076786;28;20212;-80
2023/07/30 04:24:56;;;;;;;11.33;3.67;;;16.30;99.90;;;;;;5075930;28;20172;-79
2023/07/30 04:27:21;;;;;;;10.53;3.53;;;16.30;99.90;;;;;;5076333;28;20267;-79
2023/07/30 04:29:47;;;;;;;11.83;3.70;;;16.30;99.90;;;;;;5075700;28;20203;-80
2023/07/30 04:32:13;;;;;;;15.33;3.30;;;16.40;99.90;;;;;;5076412;28;20620;-79
2023/07/30 04:34:39;;;;;;;14.97;3.33;;;16.40;99.90;;;;;;5076229;28;20176;-80
2023/07/30 04:37:05;;;;;;;16.27;3.93;;;16.40;99.90;;;;;;5076855;28;20210;-80
2023/07/30 04:39:32;;;;;;;15.40;3.40;;;16.50;99.90;;;;;;5078244;28;20207;-80
2023/07/30 04:41:58;;;;;;;13.23;3.60;;;16.50;99.90;;;;;;5077089;28;20235;-80
2023/07/30 04:44:24;;;;;;;14.43;3.47;;;16.50;99.90;;;;;;5076525;28;20173;-81
2023/07/30 04:46:49;;;;;;;12.13;3.40;;;16.50;99.90;;;;;;5077102;28;20165;-79
2023/07/30 04:49:15;;;;;;;11.30;3.60;;;16.60;99.90;;;;;;5076506;28;20164;-81
2023/07/30 04:51:41;;;;;;;14.43;3.83;;;16.60;99.90;;;;;;5076829;28;20176;-80
2023/07/30 04:54:06;;;;;;;12.53;3.37;;;16.50;99.90;;;;;;5075935;28;20169;-80
2023/07/30 04:56:32;;;;;;;16.63;3.73;;;16.50;99.90;;;;;;5075560;28;20168;-80
2023/07/30 04:58:58;;;;;;;16.53;3.83;;;16.60;99.90;;;;;;5075111;28;20186;-80
2023/07/30 05:01:26;;;;;;;13.83;3.57;;;16.60;99.90;;;;;;5075722;28;20200;-81
2023/07/30 05:03:52;;;;;;;16.30;3.80;;;16.60;99.90;;;;;;5075540;28;20169;-79
2023/07/30 05:06:17;;;;;;;10.90;3.17;;;16.50;99.90;;;;;;5057803;28;20230;-81
2023/07/30 05:08:43;;;;;;;12.73;3.40;;;16.50;99.90;;;;;;5075824;28;20517;-80
2023/07/30 05:11:08;;;;;;;14.93;3.80;;;16.50;99.90;;;;;;5057859;28;20173;-80
2023/07/30 05:13:34;;;;;;;11.67;3.30;;;16.50;99.90;;;;;;5075977;28;20983;-80
2023/07/30 05:15:59;;;;;;;14.87;3.83;;;16.60;99.90;;;;;;5076979;28;20169;-80
2023/07/30 05:18:25;;;;;;;14.77;3.90;;;16.60;99.90;;;;;;5077170;28;20184;-80
2023/07/30 05:20:51;;;;;;;13.83;3.37;;;16.60;99.90;;;;;;5059633;28;20643;-80
2023/07/30 05:23:16;;;;;;;9.73;3.23;;;16.70;99.90;;;;;;5076772;28;20185;-81
2023/07/30 05:25:42;;;;;;;16.77;3.67;;;16.70;99.90;;;;;;5076186;28;20252;-80
2023/07/30 05:28:07;;;;;;;17.23;3.50;;;16.70;99.90;;;;;;5076584;28;20655;-80
2023/07/30 05:30:33;;;;;;;13.07;3.77;;;16.60;99.90;;;;;;5076917;28;20172;-80
2023/07/30 05:32:58;;;;;;;11.90;4.07;;;16.60;99.90;;;;;;5077156;28;20583;-80
2023/07/30 05:35:24;;;;;;;15.37;3.57;;;16.70;99.90;;;;;;5077001;28;20183;-80
2023/07/30 05:37:50;;;;;;;14.80;3.53;;;16.70;99.90;;;;;;5077054;28;20567;-80
2023/07/30 05:40:15;;;;;;;13.73;3.57;;;16.70;99.90;;;;;;5078959;28;20176;-80
2023/07/30 05:42:41;;;;;;;14.40;3.53;;;16.70;99.90;;;;;;5077322;28;20255;-80
2023/07/30 05:45:07;;;;;;;15.57;3.40;;;16.70;99.90;;;;;;5078192;28;20217;-80
2023/07/30 05:47:33;;;;;;;13.70;3.33;;;16.80;99.90;;;;;;5061772;28;20212;-80
2023/07/30 05:49:59;;;;;;;17.10;3.90;;;16.80;99.90;;;;;;5078659;28;20164;-80
2023/07/30 05:52:24;;;;;;;14.70;4.00;;;17.00;99.90;;;;;;5080526;28;20176;-80
2023/07/30 05:54:50;;;;;;;10.40;3.60;;;17.10;99.90;;;;;;5079610;28;20620;-81
2023/07/30 05:57:15;;;;;;;14.40;3.67;;;17.20;99.90;;;;;;5078107;28;20188;-80
2023/07/30 05:59:41;;;;;;;14.73;3.53;;;17.20;99.90;;;;;;5079577;28;20165;-81
2023/07/30 06:02:07;;;;;;;13.15;3.53;;;17.30;99.90;;;;;;5081336;28;20224;-79
2023/07/30 06:04:32;;;;;;;14.20;3.45;;;17.30;99.90;;;;;;5082129;28;20518;-81
2023/07/30 06:07:00;;;;;;;14.60;3.90;;;17.30;99.90;;;;;;5082993;28;20191;-80
2023/07/30 06:09:26;;;;;;;10.10;3.40;;;17.40;99.90;;;;;;5084474;28;20165;-79
2023/07/30 06:11:51;;;;;;;18.67;3.50;;;17.40;99.90;;;;;;5084305;28;20529;-80
2023/07/30 06:14:17;;;;;;;14.02;3.35;;;17.40;99.90;;;;;;5087562;28;20550;-80
2023/07/30 06:16:44;;;;;;;11.85;3.50;;;17.40;99.90;;;;;;5089155;28;20176;-80
2023/07/30 06:19:09;;;;;;;16.02;3.88;;;17.30;99.90;;;;;;5088407;28;20199;-80
2023/07/30 06:21:35;;;;;;;17.45;4.13;;;17.30;99.90;;;;;;5087443;28;20204;-80
2023/07/30 06:24:01;;;;;;;13.63;3.37;;;17.20;99.90;;;;;;5085846;28;20173;-80
2023/07/30 06:26:26;;;;;;;15.13;3.63;;;17.10;99.90;;;;;;5083753;28;20686;-80
2023/07/30 06:28:52;;;;;;;14.63;3.53;;;17.10;99.90;;;;;;5081448;28;20247;-80
2023/07/30 06:31:17;;;;;;;13.63;3.88;;;17.10;99.90;;;;;;5079669;28;20238;-80
2023/07/30 06:33:43;;;;;;;14.95;3.63;;;17.30;99.90;;;;;;5080418;28;20188;-80
2023/07/30 06:36:08;;;;;;;14.20;4.00;;;17.30;99.90;;;;;;5079352;28;20206;-80
2023/07/30 06:38:34;;;;;;;16.90;3.77;;;17.40;99.90;;;;;;5078951;28;20177;-81
2023/07/30 06:41:00;;;;;;;13.93;3.80;;;17.50;99.90;;;;;;5079807;28;20616;-81
2023/07/30 06:43:25;;;;;;;17.45;3.92;;;17.70;99.90;;;;;;5079731;28;20580;-80
2023/07/30 06:45:51;;;;;;;16.98;4.20;;;17.90;99.90;;;;;;5083302;28;20179;-81
2023/07/30 06:48:17;;;;;;;14.85;3.95;;;18.00;99.90;;;;;;5085025;28;20176;-80
2023/07/30 06:50:42;;;;;;;15.48;3.90;;;17.90;99.90;;;;;;5083458;28;20179;-81
2023/07/30 06:53:08;;;;;;;14.05;3.78;;;18.10;99.90;;;;;;5085727;28;20246;-82
2023/07/30 06:55:33;;;;;;;14.30;3.35;;;18.20;99.90;;;;;;5079155;28;20681;-82
2023/07/30 06:57:59;;;;;;;12.63;3.58;;;18.80;99.90;;;;;;5073395;28;20222;-81
2023/07/30 07:00:25;;;;;;;15.68;3.45;;;20.00;99.90;;;;;;5073143;28;20620;-83
2023/07/30 07:02:50;;;;;;;11.15;3.65;;;20.50;99.90;;;;;;5073329;28;20204;-81
2023/07/30 07:05:16;;;;;;;12.75;3.15;;;21.90;99.90;;;;;;5073088;28;20172;-78
2023/07/30 07:07:42;;;;;;;8.52;3.13;;;23.70;99.90;;;;;;5073762;28;20640;-79
2023/07/30 07:10:10;;;;;;;9.30;3.22;;;24.80;99.90;;;;;;5072574;28;20624;-79
2023/07/30 07:12:37;;;;;;;11.32;3.30;;;25.40;99.90;;;;;;5072895;28;20177;-80
2023/07/30 07:15:03;;;;;;;10.73;3.35;;;25.50;99.90;;;;;;5072907;28;20695;-79
2023/07/30 07:17:29;;;;;;;11.25;3.30;;;24.40;99.90;;;;;;5072833;28;20538;-79
2023/07/30 07:19:54;;;;;;;10.23;3.55;;;24.70;99.90;;;;;;5072713;28;20165;-79
2023/07/30 07:22:20;;;;;;;10.82;3.40;;;24.70;99.90;;;;;;5072196;28;20296;-78
2023/07/30 07:24:46;;;;;;;11.73;3.38;;;24.80;99.90;;;;;;5073193;28;20172;-78
2023/07/30 07:27:11;;;;;;;7.05;3.20;;;25.80;99.50;;;;;;5072991;28;20196;-79
2023/07/30 07:29:37;;;;;;;9.38;3.13;;;24.90;99.90;;;;;;5073141;28;20247;-78
2023/07/30 07:32:03;;;;;;;11.30;3.20;;;25.70;98.90;;;;;;5073424;28;20647;-78
2023/07/30 07:34:29;;;;;;;8.55;3.42;;;26.50;97.70;;;;;;5072508;28;20173;-79
2023/07/30 07:36:55;;;;;;;11.40;3.33;;;25.80;98.40;;;;;;5072799;28;20202;-78
2023/07/30 07:39:20;;;;;;;7.85;2.90;;;24.60;99.90;;;;;;5072611;28;20627;-79
2023/07/30 07:41:46;;;;;;;11.15;2.85;;;24.00;99.90;;;;;;5072316;28;20251;-79
2023/07/30 07:44:11;;;;;;;11.52;3.85;;;23.20;99.90;;;;;;5072832;28;20171;-79
2023/07/30 07:46:37;;;;;;;8.02;2.92;;;22.70;99.90;;;;;;5072560;28;20259;-79
2023/07/30 07:49:03;;;;;;;7.68;2.90;;;22.40;99.90;;;;;;5072463;28;20229;-78
2023/07/30 07:51:28;;;;;;;12.90;3.50;;;21.90;99.90;;;;;;5072551;28;20524;-80
2023/07/30 07:53:54;;;;;;;12.10;2.78;;;21.80;99.90;;;;;;5072417;28;20212;-80
2023/07/30 07:56:19;;;;;;;12.13;3.58;;;22.00;99.90;;;;;;5072570;28;20177;-78
2023/07/30 07:58:45;;;;;;;9.45;2.95;;;21.90;99.90;;;;;;5072244;28;20528;-81
2023/07/30 08:01:10;;;;;;;12.68;3.67;;;21.90;99.90;;;;;;5072387;28;20510;-80
2023/07/30 08:03:36;;;;;;;10.52;3.47;;;22.60;99.90;;;;;;5072004;28;20604;-80
2023/07/30 08:06:02;;;;;;;7.60;2.55;;;23.40;99.90;;;;;;5072277;28;20175;-79
2023/07/30 08:08:27;;;;;;;10.02;3.10;;;23.30;99.90;;;;;;5072466;28;20172;-79
2023/07/30 08:10:53;;;;;;;8.95;3.05;;;22.90;99.90;;;;;;5072415;28;20196;-79
2023/07/30 08:13:19;;;;;;;10.02;2.78;;;22.40;99.90;;;;;;5074300;28;20612;-79
2023/07/30 08:15:44;;;;;;;7.03;2.53;;;22.50;99.90;;;;;;5058117;28;20230;-79
2023/07/30 08:18:10;;;;;;;6.82;2.40;;;22.50;99.90;;;;;;5076120;28;20180;-80
2023/07/30 08:20:36;;;;;;;8.93;2.83;;;22.60;99.90;;;;;;5075780;28;20667;-80
2023/07/30 08:23:02;;;;;;;9.52;2.88;;;22.30;99.90;;;;;;5075688;28;20683;-79
2023/07/30 08:25:27;;;;;;;7.65;2.72;;;22.10;99.90;;;;;;5057821;28;20177;-81
2023/07/30 08:27:53;;;;;;;7.70;2.75;;;21.60;99.90;;;;;;5075844;28;20177;-80
2023/07/30 08:30:19;;;;;;;7.90;2.63;;;21.40;99.90;;;;;;5075779;28;20196;-79
2023/07/30 08:32:44;;;;;;;12.23;3.20;;;21.40;99.90;;;;;;5075806;28;20200;-79
2023/07/30 08:35:10;;;;;;;9.95;2.97;;;21.40;99.90;;;;;;5075541;28;20244;-81
2023/07/30 08:37:36;;;;;;;8.05;2.60;;;21.70;99.90;;;;;;5075500;28;20179;-80
2023/07/30 08:40:02;;;;;;;8.82;3.15;;;22.30;99.90;;;;;;5075637;28;20168;-80
2023/07/30 08:42:28;;;;;;;6.07;2.53;;;23.10;99.90;;;;;;5075077;28;20255;-81
2023/07/30 08:44:54;;;;;;;6.60;2.55;;;23.10;99.90;;;;;;5075059;28;20161;-79
2023/07/30 08:47:19;;;;;;;8.52;2.80;;;23.00;99.90;;;;;;5075041;28;20665;-80
2023/07/30 08:49:45;;;;;;;5.85;2.38;;;22.80;99.90;;;;;;5074698;28;20593;-80
2023/07/30 08:52:11;;;;;;;15.32;3.83;;;22.30;99.90;;;;;;5075720;28;20238;-80
2023/07/30 08:54:39;;;;;;;8.95;2.88;;;22.10;99.90;;;;;;5075191;28;20172;-80
2023/07/30 08:57:05;;;;;;;9.90;3.28;;;21.60;99.90;;;;;;5075395;28;20200;-80
2023/07/30 08:59:37;;;;;;;10.75;3.17;;;21.30;99.90;;;;;;5074632;28;20164;-81
2023/07/30 09:02:08;;;;;;;9.35;3.03;;;21.00;99.90;;;;;;5075371;28;20699;-79
2023/07/30 09:04:37;;;;;;;11.63;2.90;;;20.90;99.90;;;;;;5074824;28;20165;-79
2023/07/30 09:07:03;;;;;;;8.82;3.10;;;20.90;99.90;;;;;;5075237;28;20168;-80
2023/07/30 09:09:28;;;;;;;12.48;3.20;;;20.40;99.90;;;;;;5074847;28;20214;-80
2023/07/30 09:11:55;;;;;;;9.48;2.95;;;20.20;99.90;;;;;;5074840;28;20176;-79
2023/07/30 09:14:21;;;;;;;8.48;2.70;;;19.80;99.90;;;;;;5057185;28;20169;-80
2023/07/30 09:16:47;;;;;;;8.85;3.10;;;19.70;99.90;;;;;;5074424;28;20165;-81
2023/07/30 09:19:18;;;;;;;9.60;2.72;;;19.60;99.90;;;;;;5074528;28;20739;-78
2023/07/30 09:21:44;;;;;;;8.07;2.63;;;19.70;99.90;;;;;;5074670;28;20208;-79
2023/07/30 09:24:09;;;;;;;7.80;2.60;;;19.50;99.90;;;;;;5073566;28;20164;-81
2023/07/30 09:26:46;;;;;;;9.93;2.85;;;19.40;99.90;;;;;;5057087;28;20180;-81
2023/07/30 09:29:12;;;;;;;6.65;2.10;;;19.20;99.90;;;;;;5074674;28;20192;-81
2023/07/30 09:31:54;;;;;;;5.90;2.35;;;19.10;99.90;;;;;;5074349;28;20620;-83
2023/07/30 09:34:21;;;;;;;6.45;3.15;;;19.30;99.90;;;;;;5074249;28;20172;-82
2023/07/30 09:36:47;;;;;;;8.95;2.67;;;19.60;99.90;;;;;;5074755;28;20171;-82
2023/07/30 09:39:20;;;;;;;10.05;3.13;;;19.80;99.90;;;;;;5074816;28;20259;-81
2023/07/30 09:41:46;;;;;;;6.55;2.67;;;20.20;99.90;;;;;;5073986;28;20228;-82
2023/07/30 09:44:13;;;;;;;9.18;2.72;;;20.40;99.90;;;;;;5074403;28;20168;-82
2023/07/30 09:46:46;;;;;;;6.50;2.58;;;20.30;99.90;;;;;;5074360;28;20173;-80
2023/07/30 09:49:12;;;;;;;10.55;2.83;;;20.40;99.90;;;;;;5073816;28;20176;-80
2023/07/30 09:51:39;;;;;;;9.60;3.40;;;19.90;99.90;;;;;;5083351;28;20255;-81
2023/07/30 09:54:13;;;;;;;8.30;3.30;;;19.70;99.90;;;;;;5056835;28;20180;-79
2023/07/30 09:56:40;;;;;;;8.80;3.08;;;19.30;99.90;;;;;;5073599;28;20241;-80
2023/07/30 09:59:07;;;;;;;8.90;3.20;;;18.90;99.90;;;;;;5074477;28;20177;-80
2023/07/30 10:01:42;;;;;;;8.00;2.83;;;18.50;99.90;;;;;;5057524;28;20234;-80
2023/07/30 10:04:09;;;;;;;10.35;2.95;;;18.40;99.90;;;;;;5079163;28;20179;-79
2023/07/30 10:06:40;;;;;;;6.93;2.88;;;18.00;99.90;;;;;;5058763;28;20176;-79
2023/07/30 10:09:08;;;;;;;10.18;3.20;;;17.90;99.90;;;;;;5075507;28;20175;-79
2023/07/30 10:11:36;;;;;;;6.65;2.65;;;17.80;99.90;;;;;;5074561;28;20588;-80
2023/07/30 10:14:02;;;;;;;11.18;2.67;;;17.90;99.90;;;;;;5075007;28;20172;-79
2023/07/30 10:16:29;;;;;;;7.60;2.55;;;18.30;99.90;;;;;;5073675;28;20632;-79
2023/07/30 10:18:58;;;;;;;6.95;2.65;;;18.80;99.90;;;;;;5073740;28;20253;-81
2023/07/30 10:21:26;;;;;;;6.63;2.60;;;19.70;99.90;;;;;;5074595;28;20663;-83
2023/07/30 10:24:04;;;;;;;11.35;3.13;;;20.50;99.90;;;;;;5073581;28;20255;-82
2023/07/30 10:26:35;;;;;;;4.68;2.13;;;20.90;99.90;;;;;;5077095;28;20206;-84
2023/07/30 10:29:11;;;;;;;6.30;2.47;;;21.90;99.90;;;;;;5077469;28;20173;-83
2023/07/30 10:31:50;;;;;;;6.13;2.30;;;22.90;99.90;;;;;;5074774;28;20175;-81
2023/07/30 10:34:15;;;;;;;6.80;2.35;;;23.50;99.90;;;;;;5076330;28;20168;-80
2023/07/30 10:36:50;;;;;;;6.60;2.15;;;23.80;99.90;;;;;;5073124;28;20179;-82
2023/07/30 10:39:20;;;;;;;7.70;2.40;;;24.10;99.90;;;;;;5056801;28;20191;-81
2023/07/30 10:41:51;;;;;;;6.65;2.25;;;23.40;99.90;;;;;;5073261;28;20691;-81
2023/07/30 10:44:25;;;;;;;6.93;2.65;;;22.50;99.90;;;;;;5073322;28;20265;-80
2023/07/30 10:46:52;;;;;;;6.57;2.13;;;22.20;99.90;;;;;;5072919;28;20172;-81
2023/07/30 10:49:17;;;;;;;7.45;2.65;;;22.20;99.90;;;;;;5075347;28;20172;-81
2023/07/30 10:51:43;;;;;;;11.23;2.90;;;21.90;99.90;;;;;;5073351;28;20187;-80
2023/07/30 10:54:08;;;;;;;9.88;2.65;;;20.90;99.90;;;;;;5073692;28;20175;-79
2023/07/30 10:56:40;;;;;;;7.45;2.67;;;20.80;99.90;;;;;;5072579;28;20191;-81
2023/07/30 10:59:07;;;;;;;4.80;2.10;;;21.40;99.90;;;;;;5072927;28;20173;-82
2023/07/30 11:01:39;;;;;;;5.00;2.17;;;21.70;99.90;;;;;;5073309;28;20200;-82
2023/07/30 11:04:10;;;;;;;3.70;1.90;;;22.30;99.90;;;;;;5077166;28;20165;-82
2023/07/30 11:06:37;;;;;;;9.05;2.35;;;22.50;99.90;;;;;;5078378;28;20149;-82
2023/07/30 11:09:02;;;;;;;4.95;2.03;;;23.00;99.90;;;;;;5073110;28;20651;-83
2023/07/30 11:11:28;;;;;;;4.78;2.35;;;23.60;99.90;;;;;;5057449;28;20177;-80
2023/07/30 11:13:56;;;;;;;3.88;2.00;;;24.20;99.90;;;;;;5076787;28;20167;-80
2023/07/30 11:16:22;;;;;;;4.07;1.50;;;24.50;99.90;;;;;;5076384;28;20192;-79
2023/07/30 11:18:47;;;;;;;6.85;2.38;;;24.70;99.90;;;;;;5073896;28;20642;-79
2023/07/30 11:21:18;;;;;;;6.95;2.08;;;25.50;99.20;;;;;;5073669;28;20172;-81
2023/07/30 11:23:45;;;;;;;9.45;2.17;;;25.80;98.20;;;;;;5075289;28;20180;-80
2023/07/30 11:26:18;;;;;;;4.57;2.13;;;25.20;98.30;;;;;;5073358;28;20196;-80
2023/07/30 11:28:44;;;;;;;5.70;2.13;;;24.70;98.20;;;;;;5076963;28;20243;-79
2023/07/30 11:31:20;;;;;;;4.50;1.42;;;24.40;97.00;;;;;;5080459;28;20187;-81
2023/07/30 11:33:47;;;;;;;3.97;1.45;;;23.70;97.80;;;;;;5079472;28;20172;-80
2023/07/30 11:36:18;;;;;;;5.30;1.80;;;24.00;96.70;;;;;;5072577;28;20588;-78
2023/07/30 11:38:46;;;;;;;3.55;1.50;;;24.10;95.70;;;;;;5073020;28;20180;-78
2023/07/30 11:41:12;;;;;;;3.60;1.98;;;23.90;96.10;;;;;;5075174;28;20222;-77
2023/07/30 11:43:42;;;;;;;6.30;1.85;;;23.90;95.90;;;;;;5075888;28;20262;-79
2023/07/30 11:46:15;;;;;;;5.78;1.90;;;23.90;96.60;;;;;;5072931;28;20169;-78
2023/07/30 11:48:43;;;;;;;3.08;1.50;;;24.30;95.30;;;;;;5075952;28;20713;-79
2023/07/30 11:51:28;;;;;;;3.58;1.77;;;23.90;94.80;;;;;;5077736;28;20175;-79
2023/07/30 11:53:56;;;;;;;3.80;1.60;;;23.70;95.30;;;;;;5080260;28;20179;-77
2023/07/30 11:56:26;;;;;;;3.20;1.60;;;23.80;94.90;;;;;;5083098;28;20165;-78
2023/07/30 11:58:57;;;;;;;3.47;1.65;;;23.70;94.90;;;;;;5081789;28;20204;-79
2023/07/30 12:01:24;;;;;;;3.45;1.48;;;23.60;94.30;;;;;;5088233;28;20224;-80
2023/07/30 12:03:50;;;;;;;3.38;1.27;;;23.50;95.10;;;;;;5085267;28;20184;-80
2023/07/30 12:06:15;;;;;;;3.60;1.50;;;23.60;94.90;;;;;;5077437;28;20172;-77
2023/07/30 12:08:41;;;;;;;3.40;1.50;;;23.60;95.40;;;;;;5076575;28;20643;-79
2023/07/30 12:11:08;;;;;;;3.85;1.60;;;23.80;94.80;;;;;;5076716;28;20192;-78
2023/07/30 12:13:41;;;;;;;3.38;1.50;;;23.90;95.50;;;;;;5075803;28;20681;-76
2023/07/30 12:16:07;;;;;;;3.95;1.52;;;23.90;93.80;;;;;;5075730;28;20186;-78
2023/07/30 12:18:33;;;;;;;4.32;1.50;;;24.20;93.40;;;;;;5076032;28;20225;-77
2023/07/30 12:20:59;;;;;;;4.15;1.55;;;24.00;93.00;;;;;;5075869;28;20604;-77
2023/07/30 12:23:25;;;;;;;3.67;1.55;;;23.90;93.60;;;;;;5076206;28;20208;-78
2023/07/30 12:25:51;;;;;;;5.82;1.80;;;23.60;95.10;;;;;;5075589;28;20717;-79
2023/07/30 12:28:17;;;;;;;4.90;1.80;;;23.70;95.10;;;;;;5075167;28;20177;-79
2023/07/30 12:30:42;;;;;;;7.60;1.80;;;23.70;95.40;;;;;;5076352;28;20297;-78
2023/07/30 12:33:08;;;;;;;5.25;1.88;;;23.70;95.50;;;;;;5075902;28;20222;-77
2023/07/30 12:35:33;;;;;;;7.68;1.90;;;23.60;96.40;;;;;;5075143;28;20176;-80
2023/07/30 12:38:00;;;;;;;4.13;1.67;;;23.70;95.30;;;;;;5075607;28;20179;-80